sensor_id;sensor_type;location;lat;lon;timestamp;temperature;humidity
69189;DHT22;56302;52.322;5.926;2022-10-31T00:02:20;11.30;96.80
69189;DHT22;56302;52.322;5.926;2022-10-31T00:04:46;11.30;97.00
69189;DHT22;56302;52.322;5.926;2022-10-31T00:07:11;11.30;96.50
69189;DHT22;56302;52.322;5.926;2022-10-31T00:09:37;11.20;96.50
69189;DHT22;56302;52.322;5.926;2022-10-31T00:12:03;11.20;96.30
69189;DHT22;56302;52.322;5.926;2022-10-31T00:14:28;11.20;96.00
69189;DHT22;56302;52.322;5.926;2022-10-31T00:16:54;11.10;96.10
69189;DHT22;56302;52.322;5.926;2022-10-31T00:19:19;11.10;96.10
69189;DHT22;56302;52.322;5.926;2022-10-31T00:21:44;11.10;96.20
69189;DHT22;56302;52.322;5.926;2022-10-31T00:24:10;11.00;96.30
69189;DHT22;56302;52.322;5.926;2022-10-31T00:26:36;10.90;96.80
69189;DHT22;56302;52.322;5.926;2022-10-31T00:29:02;10.90;96.90
69189;DHT22;56302;52.322;5.926;2022-10-31T00:31:28;10.90;97.10
69189;DHT22;56302;52.322;5.926;2022-10-31T00:33:54;10.90;97.00
69189;DHT22;56302;52.322;5.926;2022-10-31T00:36:20;10.90;96.80
69189;DHT22;56302;52.322;5.926;2022-10-31T00:38:46;10.90;96.70
69189;DHT22;56302;52.322;5.926;2022-10-31T00:41:13;10.90;96.50
69189;DHT22;56302;52.322;5.926;2022-10-31T00:43:39;10.90;96.50
69189;DHT22;56302;52.322;5.926;2022-10-31T00:46:05;10.90;96.40
69189;DHT22;56302;52.322;5.926;2022-10-31T00:48:31;10.90;96.40
69189;DHT22;56302;52.322;5.926;2022-10-31T00:50:56;10.90;96.50
69189;DHT22;56302;52.322;5.926;2022-10-31T00:53:22;10.90;96.80
69189;DHT22;56302;52.322;5.926;2022-10-31T00:55:48;10.90;97.00
69189;DHT22;56302;52.322;5.926;2022-10-31T00:58:13;10.90;97.10
69189;DHT22;56302;52.322;5.926;2022-10-31T01:00:39;10.90;97.10
69189;DHT22;56302;52.322;5.926;2022-10-31T01:03:04;10.90;97.10
69189;DHT22;56302;52.322;5.926;2022-10-31T01:05:30;10.80;97.20
69189;DHT22;56302;52.322;5.926;2022-10-31T01:07:55;10.80;97.50
69189;DHT22;56302;52.322;5.926;2022-10-31T01:10:21;10.80;97.60
69189;DHT22;56302;52.322;5.926;2022-10-31T01:12:48;10.80;97.80
69189;DHT22;56302;52.322;5.926;2022-10-31T01:15:17;10.80;98.00
69189;DHT22;56302;52.322;5.926;2022-10-31T01:17:42;10.80;97.90
69189;DHT22;56302;52.322;5.926;2022-10-31T01:20:09;10.70;97.80
69189;DHT22;56302;52.322;5.926;2022-10-31T01:22:35;10.70;97.90
69189;DHT22;56302;52.322;5.926;2022-10-31T01:25:01;10.60;98.00
69189;DHT22;56302;52.322;5.926;2022-10-31T01:27:27;10.70;98.10
69189;DHT22;56302;52.322;5.926;2022-10-31T01:29:52;10.60;98.00
69189;DHT22;56302;52.322;5.926;2022-10-31T01:32:18;10.60;98.00
69189;DHT22;56302;52.322;5.926;2022-10-31T01:34:43;10.60;98.00
69189;DHT22;56302;52.322;5.926;2022-10-31T01:37:09;10.60;98.10
69189;DHT22;56302;52.322;5.926;2022-10-31T01:39:34;10.60;98.20
69189;DHT22;56302;52.322;5.926;2022-10-31T01:42:00;10.60;98.30
69189;DHT22;56302;52.322;5.926;2022-10-31T01:46:52;10.60;98.30
69189;DHT22;56302;52.322;5.926;2022-10-31T01:52:11;10.60;98.10
69189;DHT22;56302;52.322;5.926;2022-10-31T01:54:41;10.50;98.20
69189;DHT22;56302;52.322;5.926;2022-10-31T01:57:10;10.50;98.00
69189;DHT22;56302;52.322;5.926;2022-10-31T01:59:42;10.50;98.00
69189;DHT22;56302;52.322;5.926;2022-10-31T02:02:08;10.60;97.60
69189;DHT22;56302;52.322;5.926;2022-10-31T02:04:34;10.50;97.70
69189;DHT22;56302;52.322;5.926;2022-10-31T02:07:10;10.50;97.90
69189;DHT22;56302;52.322;5.926;2022-10-31T02:09:37;10.50;98.00
69189;DHT22;56302;52.322;5.926;2022-10-31T02:12:04;10.50;97.80
69189;DHT22;56302;52.322;5.926;2022-10-31T02:14:31;10.50;97.90
69189;DHT22;56302;52.322;5.926;2022-10-31T02:16:57;10.50;97.70
69189;DHT22;56302;52.322;5.926;2022-10-31T02:22:14;10.50;97.40
69189;DHT22;56302;52.322;5.926;2022-10-31T02:30:21;10.50;96.90
69189;DHT22;56302;52.322;5.926;2022-10-31T02:33:03;10.40;96.60
69189;DHT22;56302;52.322;5.926;2022-10-31T02:38:51;10.30;96.50
69189;DHT22;56302;52.322;5.926;2022-10-31T02:46:52;9.90;97.00
69189;DHT22;56302;52.322;5.926;2022-10-31T02:49:40;9.80;97.10
69189;DHT22;56302;52.322;5.926;2022-10-31T02:52:22;9.70;97.30
69189;DHT22;56302;52.322;5.926;2022-10-31T02:54:49;9.60;97.00
69189;DHT22;56302;52.322;5.926;2022-10-31T02:57:17;9.70;97.40
69189;DHT22;56302;52.322;5.926;2022-10-31T02:59:50;9.70;97.00
69189;DHT22;56302;52.322;5.926;2022-10-31T03:03:00;9.60;96.50
69189;DHT22;56302;52.322;5.926;2022-10-31T03:05:55;9.50;96.60
69189;DHT22;56302;52.322;5.926;2022-10-31T03:08:31;9.50;96.60
69189;DHT22;56302;52.322;5.926;2022-10-31T03:10:59;9.60;96.40
69189;DHT22;56302;52.322;5.926;2022-10-31T03:13:49;9.60;95.90
69189;DHT22;56302;52.322;5.926;2022-10-31T03:18:57;9.40;95.80
69189;DHT22;56302;52.322;5.926;2022-10-31T03:23:55;9.20;96.70
69189;DHT22;56302;52.322;5.926;2022-10-31T03:26:23;9.10;96.60
69189;DHT22;56302;52.322;5.926;2022-10-31T03:28:57;9.00;96.90
69189;DHT22;56302;52.322;5.926;2022-10-31T03:31:27;8.90;97.20
69189;DHT22;56302;52.322;5.926;2022-10-31T03:33:56;9.00;97.20
69189;DHT22;56302;52.322;5.926;2022-10-31T03:36:25;9.00;97.40
69189;DHT22;56302;52.322;5.926;2022-10-31T03:38:51;9.00;97.10
69189;DHT22;56302;52.322;5.926;2022-10-31T03:41:21;9.10;97.10
69189;DHT22;56302;52.322;5.926;2022-10-31T03:43:59;9.10;96.90
69189;DHT22;56302;52.322;5.926;2022-10-31T03:46:27;9.10;96.50
69189;DHT22;56302;52.322;5.926;2022-10-31T03:48:52;9.10;96.40
69189;DHT22;56302;52.322;5.926;2022-10-31T03:57:05;8.90;96.80
69189;DHT22;56302;52.322;5.926;2022-10-31T03:59:42;8.90;96.70
69189;DHT22;56302;52.322;5.926;2022-10-31T04:02:15;8.70;96.50
69189;DHT22;56302;52.322;5.926;2022-10-31T04:04:43;8.70;96.90
69189;DHT22;56302;52.322;5.926;2022-10-31T04:07:10;8.80;96.60
69189;DHT22;56302;52.322;5.926;2022-10-31T04:09:38;8.80;96.20
69189;DHT22;56302;52.322;5.926;2022-10-31T04:12:06;8.80;95.60
69189;DHT22;56302;52.322;5.926;2022-10-31T04:14:36;8.80;95.10
69189;DHT22;56302;52.322;5.926;2022-10-31T04:17:06;8.80;95.20
69189;DHT22;56302;52.322;5.926;2022-10-31T04:19:33;8.80;94.90
69189;DHT22;56302;52.322;5.926;2022-10-31T04:21:59;8.70;94.50
69189;DHT22;56302;52.322;5.926;2022-10-31T04:24:24;8.70;94.60
69189;DHT22;56302;52.322;5.926;2022-10-31T04:26:50;8.30;94.60
69189;DHT22;56302;52.322;5.926;2022-10-31T04:29:15;8.10;95.60
69189;DHT22;56302;52.322;5.926;2022-10-31T04:31:41;8.10;96.30
69189;DHT22;56302;52.322;5.926;2022-10-31T04:34:06;8.00;96.30
69189;DHT22;56302;52.322;5.926;2022-10-31T04:36:32;8.10;96.50
69189;DHT22;56302;52.322;5.926;2022-10-31T04:38:58;8.20;96.10
69189;DHT22;56302;52.322;5.926;2022-10-31T04:41:23;8.30;95.60
69189;DHT22;56302;52.322;5.926;2022-10-31T04:43:49;8.30;95.10
69189;DHT22;56302;52.322;5.926;2022-10-31T04:46:14;8.30;94.60
69189;DHT22;56302;52.322;5.926;2022-10-31T04:48:40;8.20;94.40
69189;DHT22;56302;52.322;5.926;2022-10-31T04:51:05;8.00;94.70
69189;DHT22;56302;52.322;5.926;2022-10-31T04:53:31;7.90;95.20
69189;DHT22;56302;52.322;5.926;2022-10-31T04:56:00;8.00;95.70
69189;DHT22;56302;52.322;5.926;2022-10-31T04:58:26;8.10;95.10
69189;DHT22;56302;52.322;5.926;2022-10-31T05:00:53;8.00;94.70
69189;DHT22;56302;52.322;5.926;2022-10-31T05:03:18;7.70;95.20
69189;DHT22;56302;52.322;5.926;2022-10-31T05:05:44;7.70;95.90
69189;DHT22;56302;52.322;5.926;2022-10-31T05:08:10;7.80;95.80
69189;DHT22;56302;52.322;5.926;2022-10-31T05:10:35;7.90;95.30
69189;DHT22;56302;52.322;5.926;2022-10-31T05:13:03;7.90;94.80
69189;DHT22;56302;52.322;5.926;2022-10-31T05:15:29;7.80;94.80
69189;DHT22;56302;52.322;5.926;2022-10-31T05:17:55;7.60;95.20
69189;DHT22;56302;52.322;5.926;2022-10-31T05:20:26;7.50;95.50
69189;DHT22;56302;52.322;5.926;2022-10-31T05:22:54;7.50;96.00
69189;DHT22;56302;52.322;5.926;2022-10-31T05:25:21;7.50;96.10
69189;DHT22;56302;52.322;5.926;2022-10-31T05:27:48;7.50;96.00
69189;DHT22;56302;52.322;5.926;2022-10-31T05:30:17;7.30;95.70
69189;DHT22;56302;52.322;5.926;2022-10-31T05:32:44;7.20;96.20
69189;DHT22;56302;52.322;5.926;2022-10-31T05:35:17;7.20;96.70
69189;DHT22;56302;52.322;5.926;2022-10-31T05:37:43;7.10;96.60
69189;DHT22;56302;52.322;5.926;2022-10-31T05:40:11;7.20;96.80
69189;DHT22;56302;52.322;5.926;2022-10-31T05:42:41;7.30;96.90
69189;DHT22;56302;52.322;5.926;2022-10-31T05:45:12;7.30;96.40
69189;DHT22;56302;52.322;5.926;2022-10-31T05:47:38;7.40;96.20
69189;DHT22;56302;52.322;5.926;2022-10-31T05:50:05;7.50;95.70
69189;DHT22;56302;52.322;5.926;2022-10-31T05:52:31;7.50;95.10
69189;DHT22;56302;52.322;5.926;2022-10-31T05:54:56;7.50;94.80
69189;DHT22;56302;52.322;5.926;2022-10-31T05:57:22;7.50;94.40
69189;DHT22;56302;52.322;5.926;2022-10-31T05:59:47;7.50;94.30
69189;DHT22;56302;52.322;5.926;2022-10-31T06:02:13;7.30;94.00
69189;DHT22;56302;52.322;5.926;2022-10-31T06:04:38;7.10;95.10
69189;DHT22;56302;52.322;5.926;2022-10-31T06:07:04;7.10;95.90
69189;DHT22;56302;52.322;5.926;2022-10-31T06:09:29;7.20;95.70
69189;DHT22;56302;52.322;5.926;2022-10-31T06:11:55;7.20;95.10
69189;DHT22;56302;52.322;5.926;2022-10-31T06:14:20;7.10;94.60
69189;DHT22;56302;52.322;5.926;2022-10-31T06:16:46;6.80;95.00
69189;DHT22;56302;52.322;5.926;2022-10-31T06:19:11;6.60;96.50
69189;DHT22;56302;52.322;5.926;2022-10-31T06:21:37;6.70;96.20
69189;DHT22;56302;52.322;5.926;2022-10-31T06:24:03;6.60;96.70
69189;DHT22;56302;52.322;5.926;2022-10-31T06:26:28;6.50;97.10
69189;DHT22;56302;52.322;5.926;2022-10-31T06:28:54;6.40;98.00
69189;DHT22;56302;52.322;5.926;2022-10-31T06:31:19;6.40;97.90
69189;DHT22;56302;52.322;5.926;2022-10-31T06:33:45;6.40;98.70
69189;DHT22;56302;52.322;5.926;2022-10-31T06:36:10;6.50;98.40
69189;DHT22;56302;52.322;5.926;2022-10-31T06:38:36;6.50;98.30
69189;DHT22;56302;52.322;5.926;2022-10-31T06:41:03;6.40;98.30
69189;DHT22;56302;52.322;5.926;2022-10-31T06:43:29;6.60;98.40
69189;DHT22;56302;52.322;5.926;2022-10-31T06:45:55;6.70;97.80
69189;DHT22;56302;52.322;5.926;2022-10-31T06:48:21;6.70;97.70
69189;DHT22;56302;52.322;5.926;2022-10-31T06:50:46;6.80;97.10
69189;DHT22;56302;52.322;5.926;2022-10-31T06:53:12;6.80;96.40
69189;DHT22;56302;52.322;5.926;2022-10-31T06:55:40;6.70;96.10
69189;DHT22;56302;52.322;5.926;2022-10-31T06:58:06;6.50;96.00
69189;DHT22;56302;52.322;5.926;2022-10-31T07:00:32;6.30;96.70
69189;DHT22;56302;52.322;5.926;2022-10-31T07:03:20;6.30;97.70
69189;DHT22;56302;52.322;5.926;2022-10-31T07:05:45;6.40;98.00
69189;DHT22;56302;52.322;5.926;2022-10-31T07:08:13;6.60;97.70
69189;DHT22;56302;52.322;5.926;2022-10-31T07:10:40;6.70;97.30
69189;DHT22;56302;52.322;5.926;2022-10-31T07:13:13;6.70;96.90
69189;DHT22;56302;52.322;5.926;2022-10-31T07:15:41;6.70;96.70
69189;DHT22;56302;52.322;5.926;2022-10-31T07:18:08;6.70;96.50
69189;DHT22;56302;52.322;5.926;2022-10-31T07:20:34;6.80;96.10
69189;DHT22;56302;52.322;5.926;2022-10-31T07:23:00;6.80;95.90
69189;DHT22;56302;52.322;5.926;2022-10-31T07:25:27;6.80;95.80
69189;DHT22;56302;52.322;5.926;2022-10-31T07:27:52;6.60;95.80
69189;DHT22;56302;52.322;5.926;2022-10-31T07:30:18;6.50;96.40
69189;DHT22;56302;52.322;5.926;2022-10-31T07:32:46;6.40;97.20
69189;DHT22;56302;52.322;5.926;2022-10-31T07:35:14;6.40;97.30
69189;DHT22;56302;52.322;5.926;2022-10-31T07:37:40;6.40;97.50
69189;DHT22;56302;52.322;5.926;2022-10-31T07:40:12;6.50;97.70
69189;DHT22;56302;52.322;5.926;2022-10-31T07:42:43;6.60;98.20
69189;DHT22;56302;52.322;5.926;2022-10-31T07:45:11;6.80;98.00
69189;DHT22;56302;52.322;5.926;2022-10-31T07:47:41;6.90;97.60
69189;DHT22;56302;52.322;5.926;2022-10-31T07:50:08;6.90;97.50
69189;DHT22;56302;52.322;5.926;2022-10-31T07:52:34;7.00;97.20
69189;DHT22;56302;52.322;5.926;2022-10-31T07:55:00;7.10;97.10
69189;DHT22;56302;52.322;5.926;2022-10-31T07:57:25;7.10;97.20
69189;DHT22;56302;52.322;5.926;2022-10-31T07:59:51;7.10;97.90
69189;DHT22;56302;52.322;5.926;2022-10-31T08:02:16;7.10;98.50
69189;DHT22;56302;52.322;5.926;2022-10-31T08:04:42;7.20;98.80
69189;DHT22;56302;52.322;5.926;2022-10-31T08:07:07;7.20;99.20
69189;DHT22;56302;52.322;5.926;2022-10-31T08:09:33;7.30;99.60
69189;DHT22;56302;52.322;5.926;2022-10-31T08:11:58;7.40;99.80
69189;DHT22;56302;52.322;5.926;2022-10-31T08:14:24;7.50;99.90
69189;DHT22;56302;52.322;5.926;2022-10-31T08:16:49;7.60;99.90
69189;DHT22;56302;52.322;5.926;2022-10-31T08:19:15;7.80;99.90
69189;DHT22;56302;52.322;5.926;2022-10-31T08:21:41;7.90;99.90
69189;DHT22;56302;52.322;5.926;2022-10-31T08:24:06;8.00;99.90
69189;DHT22;56302;52.322;5.926;2022-10-31T08:26:32;8.10;99.90
69189;DHT22;56302;52.322;5.926;2022-10-31T08:28:57;8.30;99.90
69189;DHT22;56302;52.322;5.926;2022-10-31T08:31:23;8.40;99.90
69189;DHT22;56302;52.322;5.926;2022-10-31T08:33:52;8.50;99.90
69189;DHT22;56302;52.322;5.926;2022-10-31T08:36:18;8.60;99.90
69189;DHT22;56302;52.322;5.926;2022-10-31T08:38:45;8.70;99.90
69189;DHT22;56302;52.322;5.926;2022-10-31T08:41:11;8.80;99.90
69189;DHT22;56302;52.322;5.926;2022-10-31T08:43:36;9.00;99.90
69189;DHT22;56302;52.322;5.926;2022-10-31T08:46:02;9.10;99.90
69189;DHT22;56302;52.322;5.926;2022-10-31T08:48:28;9.30;99.90
69189;DHT22;56302;52.322;5.926;2022-10-31T08:50:56;9.50;99.90
69189;DHT22;56302;52.322;5.926;2022-10-31T08:53:23;9.70;99.90
69189;DHT22;56302;52.322;5.926;2022-10-31T08:55:49;9.90;99.90
69189;DHT22;56302;52.322;5.926;2022-10-31T08:58:18;10.10;99.90
69189;DHT22;56302;52.322;5.926;2022-10-31T09:00:45;10.10;99.90
69189;DHT22;56302;52.322;5.926;2022-10-31T09:03:13;10.10;99.90
69189;DHT22;56302;52.322;5.926;2022-10-31T09:05:39;10.00;99.90
69189;DHT22;56302;52.322;5.926;2022-10-31T09:08:06;10.00;99.90
69189;DHT22;56302;52.322;5.926;2022-10-31T09:10:33;10.10;99.90
69189;DHT22;56302;52.322;5.926;2022-10-31T09:13:00;10.20;99.90
69189;DHT22;56302;52.322;5.926;2022-10-31T09:15:27;10.30;99.90
69189;DHT22;56302;52.322;5.926;2022-10-31T09:17:53;10.40;99.90
69189;DHT22;56302;52.322;5.926;2022-10-31T09:20:19;10.50;99.90
69189;DHT22;56302;52.322;5.926;2022-10-31T09:22:45;10.60;99.90
69189;DHT22;56302;52.322;5.926;2022-10-31T09:25:10;10.70;99.90
69189;DHT22;56302;52.322;5.926;2022-10-31T09:27:36;10.80;99.90
69189;DHT22;56302;52.322;5.926;2022-10-31T09:30:03;10.90;99.90
69189;DHT22;56302;52.322;5.926;2022-10-31T09:32:29;11.00;99.90
69189;DHT22;56302;52.322;5.926;2022-10-31T09:34:54;11.10;99.90
69189;DHT22;56302;52.322;5.926;2022-10-31T09:37:19;11.20;99.90
69189;DHT22;56302;52.322;5.926;2022-10-31T09:39:45;11.30;99.90
69189;DHT22;56302;52.322;5.926;2022-10-31T09:50:41;11.70;99.90
69189;DHT22;56302;52.322;5.926;2022-10-31T09:53:17;11.80;99.90
69189;DHT22;56302;52.322;5.926;2022-10-31T09:55:45;11.90;99.90
69189;DHT22;56302;52.322;5.926;2022-10-31T09:58:18;12.00;99.90
69189;DHT22;56302;52.322;5.926;2022-10-31T10:00:46;12.00;99.90
69189;DHT22;56302;52.322;5.926;2022-10-31T10:03:32;12.10;99.80
69189;DHT22;56302;52.322;5.926;2022-10-31T10:08:32;12.30;99.70
69189;DHT22;56302;52.322;5.926;2022-10-31T10:27:54;12.70;98.70
69189;DHT22;56302;52.322;5.926;2022-10-31T10:30:29;12.80;98.50
69189;DHT22;56302;52.322;5.926;2022-10-31T10:33:04;12.90;98.60
69189;DHT22;56302;52.322;5.926;2022-10-31T10:35:35;13.00;98.30
69189;DHT22;56302;52.322;5.926;2022-10-31T10:40:41;13.10;97.70
69189;DHT22;56302;52.322;5.926;2022-10-31T10:49:24;13.30;97.00
69189;DHT22;56302;52.322;5.926;2022-10-31T10:54:25;13.40;96.30
69189;DHT22;56302;52.322;5.926;2022-10-31T10:59:45;13.50;95.60
69189;DHT22;56302;52.322;5.926;2022-10-31T11:02:24;13.60;95.70
69189;DHT22;56302;52.322;5.926;2022-10-31T11:04:52;13.80;95.90
69189;DHT22;56302;52.322;5.926;2022-10-31T11:07:18;13.80;95.80
69189;DHT22;56302;52.322;5.926;2022-10-31T11:09:44;13.90;95.20
69189;DHT22;56302;52.322;5.926;2022-10-31T11:12:28;13.90;95.10
69189;DHT22;56302;52.322;5.926;2022-10-31T11:15:07;13.90;94.70
69189;DHT22;56302;52.322;5.926;2022-10-31T11:17:36;13.80;94.90
69189;DHT22;56302;52.322;5.926;2022-10-31T11:20:34;13.80;94.90
69189;DHT22;56302;52.322;5.926;2022-10-31T11:23:04;13.70;95.40
69189;DHT22;56302;52.322;5.926;2022-10-31T11:25:30;13.70;95.70
69189;DHT22;56302;52.322;5.926;2022-10-31T11:28:04;13.70;95.80
69189;DHT22;56302;52.322;5.926;2022-10-31T11:30:35;13.70;96.00
69189;DHT22;56302;52.322;5.926;2022-10-31T11:33:01;13.70;96.30
69189;DHT22;56302;52.322;5.926;2022-10-31T11:35:28;13.70;96.50
69189;DHT22;56302;52.322;5.926;2022-10-31T11:37:56;13.80;96.90
69189;DHT22;56302;52.322;5.926;2022-10-31T11:40:26;13.90;97.00
69189;DHT22;56302;52.322;5.926;2022-10-31T11:42:55;13.90;96.90
69189;DHT22;56302;52.322;5.926;2022-10-31T11:47:50;13.90;96.90
69189;DHT22;56302;52.322;5.926;2022-10-31T11:50:22;13.90;97.10
69189;DHT22;56302;52.322;5.926;2022-10-31T11:52:49;13.90;97.30
69189;DHT22;56302;52.322;5.926;2022-10-31T11:55:29;13.90;97.40
69189;DHT22;56302;52.322;5.926;2022-10-31T11:57:55;13.90;97.30
69189;DHT22;56302;52.322;5.926;2022-10-31T12:00:29;14.00;97.20
69189;DHT22;56302;52.322;5.926;2022-10-31T12:03:37;14.10;97.30
69189;DHT22;56302;52.322;5.926;2022-10-31T12:06:23;14.10;97.20
69189;DHT22;56302;52.322;5.926;2022-10-31T12:08:50;14.20;97.00
69189;DHT22;56302;52.322;5.926;2022-10-31T12:11:33;14.30;96.80
69189;DHT22;56302;52.322;5.926;2022-10-31T12:17:13;14.30;95.90
69189;DHT22;56302;52.322;5.926;2022-10-31T12:19:42;14.40;95.80
69189;DHT22;56302;52.322;5.926;2022-10-31T12:28:22;14.60;94.80
69189;DHT22;56302;52.322;5.926;2022-10-31T12:37:09;14.70;92.40
69189;DHT22;56302;52.322;5.926;2022-10-31T12:45:27;14.90;91.60
69189;DHT22;56302;52.322;5.926;2022-10-31T12:50:51;15.00;91.60
69189;DHT22;56302;52.322;5.926;2022-10-31T12:59:07;15.10;91.60
69189;DHT22;56302;52.322;5.926;2022-10-31T13:01:39;15.20;91.40
69189;DHT22;56302;52.322;5.926;2022-10-31T13:04:33;15.20;91.30
69189;DHT22;56302;52.322;5.926;2022-10-31T13:07:03;15.20;91.20
69189;DHT22;56302;52.322;5.926;2022-10-31T13:09:40;15.20;91.00
69189;DHT22;56302;52.322;5.926;2022-10-31T13:12:10;15.20;90.30
69189;DHT22;56302;52.322;5.926;2022-10-31T13:14:40;15.30;90.40
69189;DHT22;56302;52.322;5.926;2022-10-31T13:17:18;15.30;90.40
69189;DHT22;56302;52.322;5.926;2022-10-31T13:19:47;15.40;90.40
69189;DHT22;56302;52.322;5.926;2022-10-31T13:22:18;15.40;90.40
69189;DHT22;56302;52.322;5.926;2022-10-31T13:25:03;15.50;90.00
69189;DHT22;56302;52.322;5.926;2022-10-31T13:27:51;15.50;89.80
69189;DHT22;56302;52.322;5.926;2022-10-31T13:30:20;15.60;89.80
69189;DHT22;56302;52.322;5.926;2022-10-31T13:35:48;15.60;89.90
69189;DHT22;56302;52.322;5.926;2022-10-31T13:38:24;15.60;89.00
69189;DHT22;56302;52.322;5.926;2022-10-31T13:44:15;15.70;88.80
69189;DHT22;56302;52.322;5.926;2022-10-31T13:46:43;15.70;89.00
69189;DHT22;56302;52.322;5.926;2022-10-31T13:49:39;15.70;88.60
69189;DHT22;56302;52.322;5.926;2022-10-31T13:54:36;15.60;88.60
69189;DHT22;56302;52.322;5.926;2022-10-31T13:57:06;15.60;88.40
69189;DHT22;56302;52.322;5.926;2022-10-31T13:59:35;15.60;88.20
69189;DHT22;56302;52.322;5.926;2022-10-31T14:02:14;15.60;88.30
69189;DHT22;56302;52.322;5.926;2022-10-31T14:04:51;15.50;88.40
69189;DHT22;56302;52.322;5.926;2022-10-31T14:07:20;15.50;88.30
69189;DHT22;56302;52.322;5.926;2022-10-31T14:10:03;15.50;88.50
69189;DHT22;56302;52.322;5.926;2022-10-31T14:12:39;15.50;88.40
69189;DHT22;56302;52.322;5.926;2022-10-31T14:15:18;15.50;88.50
69189;DHT22;56302;52.322;5.926;2022-10-31T14:18:23;15.40;88.60
69189;DHT22;56302;52.322;5.926;2022-10-31T14:20:42;15.40;88.70
69189;DHT22;56302;52.322;5.926;2022-10-31T14:25:52;15.40;88.30
69189;DHT22;56302;52.322;5.926;2022-10-31T14:28:33;15.40;88.20
69189;DHT22;56302;52.322;5.926;2022-10-31T14:31:00;15.30;88.40
69189;DHT22;56302;52.322;5.926;2022-10-31T14:33:28;15.30;88.40
69189;DHT22;56302;52.322;5.926;2022-10-31T14:36:10;15.40;88.50
69189;DHT22;56302;52.322;5.926;2022-10-31T14:39:02;15.30;88.60
69189;DHT22;56302;52.322;5.926;2022-10-31T14:44:52;15.30;89.00
69189;DHT22;56302;52.322;5.926;2022-10-31T14:53:02;15.20;89.40
69189;DHT22;56302;52.322;5.926;2022-10-31T14:55:29;15.20;89.40
69189;DHT22;56302;52.322;5.926;2022-10-31T14:58:04;15.20;89.20
69189;DHT22;56302;52.322;5.926;2022-10-31T15:00:32;15.20;89.40
69189;DHT22;56302;52.322;5.926;2022-10-31T15:03:10;15.20;89.50
69189;DHT22;56302;52.322;5.926;2022-10-31T15:05:46;15.20;89.50
69189;DHT22;56302;52.322;5.926;2022-10-31T15:08:25;15.10;89.80
69189;DHT22;56302;52.322;5.926;2022-10-31T15:10:52;15.10;90.00
69189;DHT22;56302;52.322;5.926;2022-10-31T15:13:19;15.00;90.20
69189;DHT22;56302;52.322;5.926;2022-10-31T15:15:46;15.00;90.30
69189;DHT22;56302;52.322;5.926;2022-10-31T15:18:23;15.00;90.40
69189;DHT22;56302;52.322;5.926;2022-10-31T15:20:50;15.00;90.50
69189;DHT22;56302;52.322;5.926;2022-10-31T15:23:25;15.00;90.70
69189;DHT22;56302;52.322;5.926;2022-10-31T15:25:59;14.90;90.70
69189;DHT22;56302;52.322;5.926;2022-10-31T15:28:25;14.90;90.80
69189;DHT22;56302;52.322;5.926;2022-10-31T15:30:52;14.90;91.00
69189;DHT22;56302;52.322;5.926;2022-10-31T15:33:27;14.90;91.10
69189;DHT22;56302;52.322;5.926;2022-10-31T15:36:00;14.80;91.20
69189;DHT22;56302;52.322;5.926;2022-10-31T15:38:27;14.80;91.30
69189;DHT22;56302;52.322;5.926;2022-10-31T15:41:00;14.80;91.30
69189;DHT22;56302;52.322;5.926;2022-10-31T15:43:35;14.80;91.50
69189;DHT22;56302;52.322;5.926;2022-10-31T15:46:01;14.70;91.70
69189;DHT22;56302;52.322;5.926;2022-10-31T15:48:28;14.70;91.80
69189;DHT22;56302;52.322;5.926;2022-10-31T15:50:57;14.70;91.90
69189;DHT22;56302;52.322;5.926;2022-10-31T15:53:51;14.70;91.90
69189;DHT22;56302;52.322;5.926;2022-10-31T15:56:28;14.70;91.90
69189;DHT22;56302;52.322;5.926;2022-10-31T15:58:56;14.70;91.90
69189;DHT22;56302;52.322;5.926;2022-10-31T16:01:30;14.60;92.00
69189;DHT22;56302;52.322;5.926;2022-10-31T16:06:30;14.60;91.90
69189;DHT22;56302;52.322;5.926;2022-10-31T16:08:56;14.60;91.90
69189;DHT22;56302;52.322;5.926;2022-10-31T16:11:28;14.60;92.00
69189;DHT22;56302;52.322;5.926;2022-10-31T16:16:29;14.50;92.10
69189;DHT22;56302;52.322;5.926;2022-10-31T16:18:56;14.50;92.20
69189;DHT22;56302;52.322;5.926;2022-10-31T16:21:42;14.50;92.20
69189;DHT22;56302;52.322;5.926;2022-10-31T16:26:52;14.50;92.40
69189;DHT22;56302;52.322;5.926;2022-10-31T16:29:32;14.40;92.50
69189;DHT22;56302;52.322;5.926;2022-10-31T16:31:58;14.40;92.50
69189;DHT22;56302;52.322;5.926;2022-10-31T16:34:24;14.40;92.70
69189;DHT22;56302;52.322;5.926;2022-10-31T16:36:49;14.40;92.70
69189;DHT22;56302;52.322;5.926;2022-10-31T16:39:15;14.40;92.80
69189;DHT22;56302;52.322;5.926;2022-10-31T16:41:44;14.40;92.90
69189;DHT22;56302;52.322;5.926;2022-10-31T16:44:28;14.30;92.90
69189;DHT22;56302;52.322;5.926;2022-10-31T16:49:36;14.20;93.20
69189;DHT22;56302;52.322;5.926;2022-10-31T16:52:02;14.20;93.30
69189;DHT22;56302;52.322;5.926;2022-10-31T16:54:28;14.20;93.40
69189;DHT22;56302;52.322;5.926;2022-10-31T16:56:54;14.20;93.40
69189;DHT22;56302;52.322;5.926;2022-10-31T16:59:20;14.20;93.60
69189;DHT22;56302;52.322;5.926;2022-10-31T17:01:48;14.10;93.70
69189;DHT22;56302;52.322;5.926;2022-10-31T17:04:14;14.10;93.60
69189;DHT22;56302;52.322;5.926;2022-10-31T17:06:40;14.10;93.70
69189;DHT22;56302;52.322;5.926;2022-10-31T17:09:05;14.10;93.80
69189;DHT22;56302;52.322;5.926;2022-10-31T17:11:31;14.00;93.90
69189;DHT22;56302;52.322;5.926;2022-10-31T17:13:57;14.00;94.00
69189;DHT22;56302;52.322;5.926;2022-10-31T17:16:22;14.00;94.00
69189;DHT22;56302;52.322;5.926;2022-10-31T17:18:48;14.00;94.10
69189;DHT22;56302;52.322;5.926;2022-10-31T17:21:23;13.90;94.10
69189;DHT22;56302;52.322;5.926;2022-10-31T17:23:50;13.90;94.20
69189;DHT22;56302;52.322;5.926;2022-10-31T17:26:16;13.90;94.40
69189;DHT22;56302;52.322;5.926;2022-10-31T17:28:42;13.80;94.40
69189;DHT22;56302;52.322;5.926;2022-10-31T17:31:21;13.80;94.70
69189;DHT22;56302;52.322;5.926;2022-10-31T17:33:46;13.80;94.60
69189;DHT22;56302;52.322;5.926;2022-10-31T17:36:12;13.80;94.60
69189;DHT22;56302;52.322;5.926;2022-10-31T17:38:37;13.80;94.60
69189;DHT22;56302;52.322;5.926;2022-10-31T17:41:07;13.80;94.70
69189;DHT22;56302;52.322;5.926;2022-10-31T17:43:32;13.70;94.70
69189;DHT22;56302;52.322;5.926;2022-10-31T17:46:05;13.70;94.70
69189;DHT22;56302;52.322;5.926;2022-10-31T17:48:33;13.70;94.80
69189;DHT22;56302;52.322;5.926;2022-10-31T17:51:00;13.70;94.80
69189;DHT22;56302;52.322;5.926;2022-10-31T17:53:31;13.70;94.90
69189;DHT22;56302;52.322;5.926;2022-10-31T17:56:04;13.60;95.00
69189;DHT22;56302;52.322;5.926;2022-10-31T17:58:30;13.60;95.10
69189;DHT22;56302;52.322;5.926;2022-10-31T18:00:57;13.60;95.00
69189;DHT22;56302;52.322;5.926;2022-10-31T18:03:23;13.60;95.20
69189;DHT22;56302;52.322;5.926;2022-10-31T18:05:57;13.60;95.30
69189;DHT22;56302;52.322;5.926;2022-10-31T18:08:28;13.60;95.50
69189;DHT22;56302;52.322;5.926;2022-10-31T18:10:55;13.50;95.70